Time;durP1;ratioP1;P1;durP2;ratioP2;P2;SDS_P1;SDS_P2;PMS_P1;PMS_P2;Temp;Humidity;BMP_temperature;BMP_pressure;BME280_temperature;BME280_humidity;BME280_pressure;Samples;Min_cycle;Max_cycle;Signal;HPM_P1;HPM_P2
2023/02/12 00:01:14;;;;;;;189.40;19.70;;;;;;;;;;5082938;28;20104;-59
2023/02/12 00:03:40;;;;;;;154.65;18.80;;;;;;;;;;5084795;28;20023;-58
2023/02/12 00:06:06;;;;;;;163.38;17.40;;;;;;;;;;5085257;28;20706;-59
2023/02/12 00:08:31;;;;;;;136.10;16.35;;;;;;;;;;5085597;28;20032;-58
2023/02/12 00:10:56;;;;;;;145.15;16.67;;;;;;;;;;5084827;28;20047;-58
2023/02/12 00:13:22;;;;;;;165.20;16.25;;;;;;;;;;5085451;28;20027;-58
2023/02/12 00:15:47;;;;;;;170.55;17.98;;;;;;;;;;5085036;28;20032;-59
2023/02/12 00:18:13;;;;;;;167.30;18.67;;;;;;;;;;5084712;28;20394;-57
2023/02/12 00:20:38;;;;;;;216.90;20.48;;;;;;;;;;5081955;28;20043;-59
2023/02/12 00:23:04;;;;;;;131.20;16.85;;;;;;;;;;5085689;28;20099;-58
2023/02/12 00:25:29;;;;;;;168.82;18.40;;;;;;;;;;5084079;28;20115;-58
2023/02/12 00:27:54;;;;;;;129.23;17.25;;;;;;;;;;5084788;28;20108;-58
2023/02/12 00:30:20;;;;;;;165.85;18.27;;;;;;;;;;5086130;28;20087;-58
2023/02/12 00:32:45;;;;;;;213.05;20.10;;;;;;;;;;5084657;28;20027;-58
2023/02/12 00:35:11;;;;;;;181.93;19.88;;;;;;;;;;5085467;28;20027;-59
2023/02/12 00:37:36;;;;;;;179.63;19.50;;;;;;;;;;5084801;28;20725;-57
2023/02/12 00:40:01;;;;;;;158.03;18.23;;;;;;;;;;5084636;28;20441;-57
2023/02/12 00:42:26;;;;;;;145.35;17.15;;;;;;;;;;5084706;28;20610;-57
2023/02/12 00:44:52;;;;;;;185.48;19.50;;;;;;;;;;5084282;28;20075;-57
2023/02/12 00:47:17;;;;;;;156.57;19.00;;;;;;;;;;5085948;28;20024;-60
2023/02/12 00:49:42;;;;;;;140.57;17.73;;;;;;;;;;5084052;28;20253;-57
2023/02/12 00:52:07;;;;;;;143.77;17.17;;;;;;;;;;5083301;28;20024;-56
2023/02/12 00:54:33;;;;;;;143.52;16.17;;;;;;;;;;5083103;28;20539;-56
2023/02/12 00:56:58;;;;;;;199.05;18.77;;;;;;;;;;5085794;28;20044;-56
2023/02/12 00:59:24;;;;;;;167.57;17.55;;;;;;;;;;5069949;28;20030;-58
2023/02/12 01:01:50;;;;;;;237.60;17.08;;;;;;;;;;5083939;28;20027;-57
2023/02/12 01:04:16;;;;;;;180.77;15.02;;;;;;;;;;5085706;28;20020;-56
2023/02/12 01:06:41;;;;;;;135.05;13.55;;;;;;;;;;5085390;28;20039;-58
2023/02/12 01:09:06;;;;;;;170.20;15.20;;;;;;;;;;5086425;28;20023;-59
2023/02/12 01:11:32;;;;;;;159.38;15.27;;;;;;;;;;5088047;28;20044;-57
2023/02/12 01:13:57;;;;;;;132.07;14.40;;;;;;;;;;5087393;28;20031;-55
2023/02/12 01:16:23;;;;;;;164.35;14.75;;;;;;;;;;5085821;28;20281;-57
2023/02/12 01:18:49;;;;;;;140.40;15.07;;;;;;;;;;5087949;28;20624;-57
2023/02/12 01:21:15;;;;;;;161.10;17.92;;;;;;;;;;5088029;28;20036;-58
2023/02/12 01:23:41;;;;;;;168.73;16.98;;;;;;;;;;5089582;28;20604;-57
2023/02/12 01:26:09;;;;;;;139.13;16.27;;;;;;;;;;5087516;28;20629;-56
2023/02/12 01:28:34;;;;;;;175.32;19.05;;;;;;;;;;5087861;28;20020;-57
2023/02/12 01:31:00;;;;;;;145.50;16.83;;;;;;;;;;5088379;28;20081;-57
2023/02/12 01:33:25;;;;;;;146.63;17.15;;;;;;;;;;5087798;28;20065;-57
2023/02/12 01:35:50;;;;;;;166.48;16.75;;;;;;;;;;5088221;28;20075;-57
2023/02/12 01:38:15;;;;;;;149.65;16.60;;;;;;;;;;5086860;28;20031;-56
2023/02/12 01:40:41;;;;;;;177.23;18.10;;;;;;;;;;5088826;28;20449;-57
2023/02/12 01:43:09;;;;;;;166.13;17.13;;;;;;;;;;5087947;28;21003;-57
2023/02/12 01:45:45;;;;;;;149.85;18.05;;;;;;;;;;5088613;28;20784;-55
2023/02/12 01:48:12;;;;;;;154.75;17.83;;;;;;;;;;5086310;28;20024;-57
2023/02/12 01:50:37;;;;;;;197.75;18.42;;;;;;;;;;5087245;28;20095;-55
2023/02/12 01:53:03;;;;;;;186.80;18.88;;;;;;;;;;5088063;28;20012;-56
2023/02/12 01:55:29;;;;;;;141.90;17.00;;;;;;;;;;5088160;28;20028;-57
2023/02/12 01:57:54;;;;;;;149.25;18.35;;;;;;;;;;5086787;28;20019;-56
2023/02/12 02:00:22;;;;;;;179.82;20.35;;;;;;;;;;5087721;28;20024;-58
2023/02/12 02:02:50;;;;;;;185.68;24.13;;;;;;;;;;5078181;28;20008;-57
2023/02/12 02:05:20;;;;;;;208.68;23.88;;;;;;;;;;5086786;28;20004;-56
2023/02/12 02:07:45;;;;;;;154.25;19.73;;;;;;;;;;5088605;28;20012;-58
2023/02/12 02:10:10;;;;;;;169.35;18.00;;;;;;;;;;5087759;28;20137;-57
2023/02/12 02:15:20;;;;;;;163.90;17.77;;;;;;;;;;5087073;28;20030;-57
2023/02/12 02:17:45;;;;;;;154.30;14.52;;;;;;;;;;5089686;28;20016;-56
2023/02/12 02:20:23;;;;;;;153.30;13.00;;;;;;;;;;5087041;28;20030;-56
2023/02/12 02:23:00;;;;;;;149.02;13.50;;;;;;;;;;5086631;28;20242;-55
2023/02/12 02:25:37;;;;;;;141.85;14.90;;;;;;;;;;5087626;28;20042;-58
2023/02/12 02:28:02;;;;;;;143.82;16.98;;;;;;;;;;5087701;28;20012;-56
2023/02/12 02:30:33;;;;;;;162.53;15.83;;;;;;;;;;5086287;28;20032;-57
2023/02/12 02:33:20;;;;;;;168.95;16.98;;;;;;;;;;5086942;28;20250;-57
2023/02/12 02:36:09;;;;;;;182.95;18.63;;;;;;;;;;5087923;28;20104;-56
2023/02/12 02:38:34;;;;;;;129.98;17.33;;;;;;;;;;5086353;28;20510;-56
2023/02/12 02:40:59;;;;;;;176.95;18.25;;;;;;;;;;5085268;28;20128;-57
2023/02/12 02:43:27;;;;;;;135.52;16.10;;;;;;;;;;5085937;28;20148;-57
2023/02/12 02:45:59;;;;;;;151.52;16.77;;;;;;;;;;5084997;28;21067;-58
2023/02/12 02:48:47;;;;;;;143.75;16.60;;;;;;;;;;5087490;28;20020;-57
2023/02/12 02:51:15;;;;;;;196.23;19.08;;;;;;;;;;5072271;28;20577;-56
2023/02/12 02:53:42;;;;;;;160.13;17.25;;;;;;;;;;5088324;28;20028;-56
2023/02/12 02:56:12;;;;;;;194.40;18.08;;;;;;;;;;5085395;28;20511;-57
2023/02/12 02:58:42;;;;;;;150.65;17.23;;;;;;;;;;5086434;28;20019;-56
2023/02/12 03:01:13;;;;;;;154.40;15.70;;;;;;;;;;5084603;28;20561;-57
2023/02/12 03:03:42;;;;;;;153.02;15.25;;;;;;;;;;5084541;28;20514;-59
2023/02/12 03:06:10;;;;;;;142.75;17.20;;;;;;;;;;5087231;28;20047;-59
2023/02/12 03:08:38;;;;;;;140.18;16.33;;;;;;;;;;5085811;28;20035;-59
2023/02/12 03:11:10;;;;;;;160.35;18.10;;;;;;;;;;5085778;28;20050;-58
2023/02/12 03:13:35;;;;;;;;;;;;;;;;;;5086299;28;20102;-59
2023/02/12 03:16:06;;;;;;;161.40;19.52;;;;;;;;;;5086104;28;19916;-58
2023/02/12 03:18:39;;;;;;;173.35;19.90;;;;;;;;;;5085746;28;20409;-57
2023/02/12 03:21:08;;;;;;;146.57;17.98;;;;;;;;;;5087630;28;20031;-55
2023/02/12 03:23:39;;;;;;;175.35;17.85;;;;;;;;;;5086373;28;20016;-57
2023/02/12 03:26:08;;;;;;;167.55;18.08;;;;;;;;;;5085979;28;20105;-56
2023/02/12 03:28:34;;;;;;;151.95;17.80;;;;;;;;;;5086099;28;20142;-58
2023/02/12 03:31:02;;;;;;;150.98;15.98;;;;;;;;;;5086301;28;20079;-57
2023/02/12 03:33:40;;;;;;;153.98;16.02;;;;;;;;;;5085892;28;20031;-56
2023/02/12 03:36:09;;;;;;;128.82;15.70;;;;;;;;;;5083281;28;20127;-55
2023/02/12 03:38:37;;;;;;;148.13;15.18;;;;;;;;;;5085905;28;20176;-57
2023/02/12 03:41:09;;;;;;;165.05;17.33;;;;;;;;;;5084419;28;20066;-58
2023/02/12 03:43:41;;;;;;;121.80;15.40;;;;;;;;;;5087879;28;20083;-57
2023/02/12 03:46:06;;;;;;;171.20;16.65;;;;;;;;;;5085112;28;20035;-57
2023/02/12 03:48:40;;;;;;;145.63;16.53;;;;;;;;;;5086674;28;20035;-57
2023/02/12 03:51:15;;;;;;;179.98;17.40;;;;;;;;;;5083801;28;20293;-56
2023/02/12 03:53:42;;;;;;;151.68;15.93;;;;;;;;;;5084946;28;20039;-55
2023/02/12 03:56:11;;;;;;;178.88;17.42;;;;;;;;;;5085503;28;20381;-57
2023/02/12 03:58:37;;;;;;;133.55;16.20;;;;;;;;;;5086260;28;20085;-57
2023/02/12 04:01:03;;;;;;;153.55;17.70;;;;;;;;;;5085384;28;20054;-59
2023/02/12 04:03:29;;;;;;;180.80;17.92;;;;;;;;;;5085450;28;21030;-57
2023/02/12 04:05:54;;;;;;;158.15;17.00;;;;;;;;;;5084993;28;20056;-56
2023/02/12 04:08:19;;;;;;;164.48;16.20;;;;;;;;;;5085547;28;20051;-57
2023/02/12 04:10:51;;;;;;;169.85;17.00;;;;;;;;;;5083893;28;20085;-57
2023/02/12 04:13:20;;;;;;;153.13;17.00;;;;;;;;;;5084985;28;20479;-57
2023/02/12 04:15:51;;;;;;;141.00;15.93;;;;;;;;;;5085259;28;20119;-57
2023/02/12 04:18:24;;;;;;;155.20;16.52;;;;;;;;;;5085469;28;20522;-58
2023/02/12 04:20:49;;;;;;;175.05;17.08;;;;;;;;;;5084068;28;20048;-56
2023/02/12 04:23:41;;;;;;;146.17;16.30;;;;;;;;;;5085574;28;20478;-57
2023/02/12 04:26:12;;;;;;;160.27;16.15;;;;;;;;;;5085798;28;20273;-55
2023/02/12 04:28:56;;;;;;;151.55;16.98;;;;;;;;;;5086365;28;20016;-57
2023/02/12 04:31:33;;;;;;;156.68;16.48;;;;;;;;;;5067598;28;20066;-56
2023/02/12 04:34:05;;;;;;;193.55;18.95;;;;;;;;;;5084203;28;20036;-55
2023/02/12 04:36:33;;;;;;;136.80;16.27;;;;;;;;;;5087096;28;20024;-57
2023/02/12 04:39:00;;;;;;;157.15;18.05;;;;;;;;;;5084603;28;20486;-56
2023/02/12 04:41:26;;;;;;;133.13;16.33;;;;;;;;;;5084296;28;20072;-57
2023/02/12 04:43:51;;;;;;;153.63;17.45;;;;;;;;;;5089331;28;20062;-57
2023/02/12 04:46:16;;;;;;;140.68;17.23;;;;;;;;;;5088506;28;20040;-56
2023/02/12 04:48:55;;;;;;;145.10;16.10;;;;;;;;;;5091282;28;20144;-57
2023/02/12 04:51:20;;;;;;;154.35;16.95;;;;;;;;;;5089789;28;20289;-57
2023/02/12 04:53:46;;;;;;;149.15;16.10;;;;;;;;;;5087478;28;20052;-57
2023/02/12 04:56:12;;;;;;;165.93;17.13;;;;;;;;;;5087406;28;20445;-57
2023/02/12 04:58:37;;;;;;;147.38;16.23;;;;;;;;;;5089892;28;20032;-56
2023/02/12 05:01:02;;;;;;;148.98;16.65;;;;;;;;;;5089275;28;20028;-56
2023/02/12 05:03:28;;;;;;;191.67;18.13;;;;;;;;;;5088070;28;20094;-56
2023/02/12 05:05:53;;;;;;;138.40;16.23;;;;;;;;;;5089995;28;20274;-57
2023/02/12 05:08:18;;;;;;;157.53;16.80;;;;;;;;;;5087671;28;20759;-57
2023/02/12 05:10:43;;;;;;;186.17;17.80;;;;;;;;;;5086117;28;20275;-57
2023/02/12 05:13:09;;;;;;;165.38;16.70;;;;;;;;;;5088092;28;20286;-56
2023/02/12 05:15:34;;;;;;;155.98;16.98;;;;;;;;;;5089225;28;20687;-56
2023/02/12 05:17:59;;;;;;;147.18;16.65;;;;;;;;;;5088742;28;20026;-56
2023/02/12 05:20:24;;;;;;;154.00;16.90;;;;;;;;;;5073693;28;20506;-56
2023/02/12 05:22:51;;;;;;;188.75;17.98;;;;;;;;;;5088856;28;20265;-55
2023/02/12 05:25:16;;;;;;;146.77;17.70;;;;;;;;;;5088009;28;20024;-58
2023/02/12 05:27:41;;;;;;;141.30;17.13;;;;;;;;;;5087734;28;20491;-55
2023/02/12 05:30:08;;;;;;;160.90;17.45;;;;;;;;;;5086663;28;20038;-56
2023/02/12 05:32:33;;;;;;;123.82;16.48;;;;;;;;;;5087711;28;20020;-57
2023/02/12 05:34:58;;;;;;;156.95;18.15;;;;;;;;;;5087292;28;20026;-55
2023/02/12 05:37:23;;;;;;;154.40;16.45;;;;;;;;;;5089635;28;20044;-55
2023/02/12 05:39:49;;;;;;;162.65;18.45;;;;;;;;;;5088965;28;20123;-57
2023/02/12 05:42:14;;;;;;;173.93;18.88;;;;;;;;;;5084741;28;20044;-56
2023/02/12 05:44:39;;;;;;;161.75;18.73;;;;;;;;;;5088562;28;20016;-56
2023/02/12 05:47:05;;;;;;;189.97;19.63;;;;;;;;;;5087687;28;20043;-56
2023/02/12 05:49:30;;;;;;;156.93;18.23;;;;;;;;;;5087885;28;20254;-57
2023/02/12 05:51:55;;;;;;;167.30;19.60;;;;;;;;;;5087094;28;20266;-56
2023/02/12 05:54:20;;;;;;;156.37;17.80;;;;;;;;;;5086580;28;20257;-56
2023/02/12 05:56:46;;;;;;;139.45;17.85;;;;;;;;;;5088507;28;20294;-57
2023/02/12 05:59:13;;;;;;;159.27;17.63;;;;;;;;;;5088609;28;20059;-57
2023/02/12 06:01:40;;;;;;;207.38;20.35;;;;;;;;;;5087762;28;20087;-57
2023/02/12 06:04:07;;;;;;;168.07;18.50;;;;;;;;;;5088092;28;20028;-55
2023/02/12 06:06:33;;;;;;;156.50;18.23;;;;;;;;;;5086501;28;20043;-56
2023/02/12 06:08:58;;;;;;;139.68;17.17;;;;;;;;;;5088020;28;20053;-55
2023/02/12 06:11:23;;;;;;;157.00;17.67;;;;;;;;;;5086333;28;20150;-57
2023/02/12 06:13:49;;;;;;;181.95;18.75;;;;;;;;;;5085868;28;20047;-56
2023/02/12 06:16:17;;;;;;;157.63;16.77;;;;;;;;;;5086839;28;20139;-57
2023/02/12 06:18:42;;;;;;;180.70;18.63;;;;;;;;;;5086708;28;20032;-55
2023/02/12 06:21:07;;;;;;;165.55;18.48;;;;;;;;;;5084948;28;20113;-55
2023/02/12 06:23:33;;;;;;;148.75;17.92;;;;;;;;;;5086439;28;20012;-58
2023/02/12 06:25:58;;;;;;;192.67;18.83;;;;;;;;;;5084368;28;20093;-56
2023/02/12 06:28:24;;;;;;;194.82;18.65;;;;;;;;;;5083746;28;20317;-57
2023/02/12 06:30:49;;;;;;;186.95;20.27;;;;;;;;;;5083837;28;20047;-56
2023/02/12 06:33:14;;;;;;;199.93;20.52;;;;;;;;;;5083469;28;20020;-56
2023/02/12 06:35:40;;;;;;;163.18;19.80;;;;;;;;;;5087124;28;20509;-55
2023/02/12 06:38:05;;;;;;;186.27;20.02;;;;;;;;;;5086142;28;20558;-57
2023/02/12 06:40:31;;;;;;;169.00;19.15;;;;;;;;;;5071804;28;20040;-57
2023/02/12 06:42:56;;;;;;;172.25;19.58;;;;;;;;;;5086851;28;20192;-56
2023/02/12 06:45:21;;;;;;;163.48;16.95;;;;;;;;;;5086162;28;20022;-56
2023/02/12 06:47:46;;;;;;;167.20;17.95;;;;;;;;;;5086632;28;20065;-56
2023/02/12 06:50:12;;;;;;;180.68;17.27;;;;;;;;;;5087393;28;20024;-55
2023/02/12 06:52:37;;;;;;;123.57;15.95;;;;;;;;;;5084999;28;20050;-56
2023/02/12 06:55:02;;;;;;;132.90;18.60;;;;;;;;;;5087922;28;20054;-56
2023/02/12 06:57:28;;;;;;;183.60;20.77;;;;;;;;;;5088117;28;20084;-56
2023/02/12 06:59:54;;;;;;;179.25;18.92;;;;;;;;;;5086779;28;20020;-56
2023/02/12 07:02:19;;;;;;;183.52;22.85;;;;;;;;;;5084767;28;20056;-59
2023/02/12 07:04:44;;;;;;;168.93;20.85;;;;;;;;;;5085424;28;20035;-56
2023/02/12 07:07:09;;;;;;;126.97;20.65;;;;;;;;;;5085545;28;20990;-58
2023/02/12 07:09:34;;;;;;;168.33;20.97;;;;;;;;;;5087593;28;20443;-57
2023/02/12 07:12:00;;;;;;;171.85;22.60;;;;;;;;;;5084761;28;20657;-57
2023/02/12 07:14:27;;;;;;;168.75;22.27;;;;;;;;;;5087369;28;20034;-59
2023/02/12 07:16:52;;;;;;;201.23;23.23;;;;;;;;;;5086168;28;20035;-57
2023/02/12 07:19:18;;;;;;;168.40;22.00;;;;;;;;;;5085064;28;20026;-57
2023/02/12 07:21:43;;;;;;;248.50;24.23;;;;;;;;;;5084098;28;20043;-58
2023/02/12 07:24:10;;;;;;;149.38;20.23;;;;;;;;;;5085239;28;20048;-56
2023/02/12 07:26:36;;;;;;;153.02;20.92;;;;;;;;;;5084323;28;20044;-56
2023/02/12 07:29:01;;;;;;;214.48;23.77;;;;;;;;;;5087624;28;20085;-58
2023/02/12 07:31:26;;;;;;;159.07;21.97;;;;;;;;;;5086406;28;20123;-57
2023/02/12 07:33:55;;;;;;;163.57;21.67;;;;;;;;;;5086246;28;20260;-57
2023/02/12 07:36:21;;;;;;;181.40;22.92;;;;;;;;;;5084514;28;20970;-58
2023/02/12 07:38:46;;;;;;;171.13;23.02;;;;;;;;;;5086455;28;20039;-59
2023/02/12 07:41:14;;;;;;;182.00;22.35;;;;;;;;;;5083750;28;20039;-58
2023/02/12 07:43:39;;;;;;;173.73;21.48;;;;;;;;;;5084086;28;20591;-59
2023/02/12 07:46:06;;;;;;;142.52;20.25;;;;;;;;;;5086900;28;20036;-57
2023/02/12 07:48:31;;;;;;;135.02;20.50;;;;;;;;;;5085982;28;20904;-58
2023/02/12 07:50:56;;;;;;;150.07;20.80;;;;;;;;;;5084558;28;20151;-59
2023/02/12 07:53:21;;;;;;;186.73;21.63;;;;;;;;;;5085876;28;20156;-58
2023/02/12 07:55:47;;;;;;;169.87;20.60;;;;;;;;;;5086348;28;20291;-58
2023/02/12 07:58:12;;;;;;;180.75;21.10;;;;;;;;;;5085077;28;20268;-57
2023/02/12 08:00:37;;;;;;;212.23;19.70;;;;;;;;;;5084395;28;20044;-57
2023/02/12 08:03:02;;;;;;;119.27;16.30;;;;;;;;;;5078894;28;20449;-59
2023/02/12 08:05:27;;;;;;;144.50;16.73;;;;;;;;;;5085646;28;20268;-59
2023/02/12 08:07:53;;;;;;;134.07;16.55;;;;;;;;;;5087607;28;20020;-57
2023/02/12 08:10:21;;;;;;;139.53;16.47;;;;;;;;;;5088401;28;20092;-57
2023/02/12 08:12:46;;;;;;;164.68;16.35;;;;;;;;;;5085728;28;20246;-57
2023/02/12 08:15:11;;;;;;;149.30;15.95;;;;;;;;;;5089181;28;20012;-57
2023/02/12 08:17:36;;;;;;;124.10;16.33;;;;;;;;;;5090522;28;20016;-56
2023/02/12 08:20:02;;;;;;;131.57;17.75;;;;;;;;;;5091175;28;20016;-58
2023/02/12 08:22:27;;;;;;;122.65;16.65;;;;;;;;;;5070167;28;20084;-56
2023/02/12 08:24:52;;;;;;;157.38;18.38;;;;;;;;;;5091353;28;20122;-57
2023/02/12 08:27:17;;;;;;;140.07;16.50;;;;;;;;;;5091997;28;20031;-58
2023/02/12 08:29:43;;;;;;;138.37;19.90;;;;;;;;;;5091692;28;20242;-56
2023/02/12 08:32:12;;;;;;;174.07;16.63;;;;;;;;;;5089441;28;20259;-57
2023/02/12 08:34:37;;;;;;;150.15;18.83;;;;;;;;;;5091490;28;20031;-57
2023/02/12 08:37:04;;;;;;;160.67;18.80;;;;;;;;;;5091368;28;20036;-57
2023/02/12 08:39:29;;;;;;;115.68;19.15;;;;;;;;;;5093513;28;20282;-59
2023/02/12 08:41:55;;;;;;;136.43;17.70;;;;;;;;;;5088684;28;20134;-57
2023/02/12 08:44:21;;;;;;;149.90;20.10;;;;;;;;;;5092178;28;20023;-58
2023/02/12 08:46:48;;;;;;;138.70;19.02;;;;;;;;;;5091907;28;20046;-57
2023/02/12 08:49:15;;;;;;;160.20;20.40;;;;;;;;;;5092539;28;20454;-56
2023/02/12 08:51:42;;;;;;;206.68;21.58;;;;;;;;;;5088982;28;20407;-57
2023/02/12 08:54:09;;;;;;;140.30;19.50;;;;;;;;;;5092296;28;20514;-60
2023/02/12 08:56:35;;;;;;;162.80;20.15;;;;;;;;;;5092473;28;20040;-58
2023/02/12 08:59:01;;;;;;;137.73;18.52;;;;;;;;;;5092274;28;20028;-58
2023/02/12 09:01:28;;;;;;;165.70;19.95;;;;;;;;;;5090917;28;20178;-57
2023/02/12 09:03:54;;;;;;;150.75;20.40;;;;;;;;;;5089955;28;20024;-55
2023/02/12 09:06:20;;;;;;;145.02;18.30;;;;;;;;;;5088608;28;20444;-59
2023/02/12 09:08:46;;;;;;;181.93;21.40;;;;;;;;;;5089848;28;20617;-58
2023/02/12 09:11:12;;;;;;;139.35;18.83;;;;;;;;;;5075905;28;20044;-58
2023/02/12 09:13:38;;;;;;;121.43;15.15;;;;;;;;;;5090357;28;20012;-56
2023/02/12 09:16:04;;;;;;;148.40;19.52;;;;;;;;;;5092091;28;20546;-58
2023/02/12 09:18:30;;;;;;;158.15;20.02;;;;;;;;;;5088547;28;20104;-58
2023/02/12 09:20:59;;;;;;;151.25;20.40;;;;;;;;;;5089500;28;20039;-57
2023/02/12 09:23:24;;;;;;;152.38;20.75;;;;;;;;;;5089686;28;20099;-57
2023/02/12 09:25:49;;;;;;;143.05;21.90;;;;;;;;;;5087229;28;20415;-58
2023/02/12 09:28:15;;;;;;;167.38;21.67;;;;;;;;;;5088474;28;20056;-57
2023/02/12 09:30:40;;;;;;;163.15;20.38;;;;;;;;;;5088048;28;20124;-56
2023/02/12 09:33:06;;;;;;;174.85;21.63;;;;;;;;;;5091220;28;20407;-57
2023/02/12 09:35:33;;;;;;;164.65;21.73;;;;;;;;;;5087763;28;20046;-58
2023/02/12 09:37:58;;;;;;;140.00;19.15;;;;;;;;;;5088188;28;20993;-56
2023/02/12 09:40:28;;;;;;;159.57;17.83;;;;;;;;;;5079545;28;20044;-59
2023/02/12 09:43:04;;;;;;;153.88;17.80;;;;;;;;;;5088412;28;20258;-57
2023/02/12 09:45:33;;;;;;;145.52;19.58;;;;;;;;;;5091711;28;20040;-59
2023/02/12 09:48:05;;;;;;;117.70;18.17;;;;;;;;;;5090691;28;20024;-57
2023/02/12 09:50:36;;;;;;;208.98;22.23;;;;;;;;;;5087346;28;20085;-59
2023/02/12 09:53:03;;;;;;;142.55;19.38;;;;;;;;;;5087935;28;20019;-59
2023/02/12 09:55:29;;;;;;;150.75;18.17;;;;;;;;;;5087938;28;20032;-56
2023/02/12 09:57:54;;;;;;;161.80;23.58;;;;;;;;;;5091608;28;20037;-57
2023/02/12 10:00:20;;;;;;;158.80;21.10;;;;;;;;;;5089913;28;20909;-58
2023/02/12 10:02:45;;;;;;;178.23;21.80;;;;;;;;;;5087377;28;20115;-58
2023/02/12 10:05:15;;;;;;;198.52;22.23;;;;;;;;;;5086250;28;20027;-57
2023/02/12 10:07:43;;;;;;;143.48;15.73;;;;;;;;;;5088611;28;20028;-58
2023/02/12 10:10:08;;;;;;;116.95;14.50;;;;;;;;;;5089981;28;20027;-56
2023/02/12 10:12:33;;;;;;;112.03;16.07;;;;;;;;;;5089252;28;20016;-57
2023/02/12 10:15:12;;;;;;;145.03;17.57;;;;;;;;;;5090223;28;20261;-57
2023/02/12 10:17:57;;;;;;;126.53;16.73;;;;;;;;;;5064221;28;20712;-57
2023/02/12 10:20:41;;;;;;;136.20;16.40;;;;;;;;;;5077645;28;20666;-57
2023/02/12 10:23:25;;;;;;;169.00;17.05;;;;;;;;;;5068672;28;20108;-56
2023/02/12 10:25:51;;;;;;;104.55;11.48;;;;;;;;;;5075315;28;20429;-57
2023/02/12 10:28:19;;;;;;;147.88;17.45;;;;;;;;;;5089655;28;20076;-58
2023/02/12 10:31:06;;;;;;;176.40;18.10;;;;;;;;;;5082378;28;20082;-57
2023/02/12 10:33:36;;;;;;;156.35;16.80;;;;;;;;;;5066906;28;20077;-60
2023/02/12 10:36:01;;;;;;;138.52;16.50;;;;;;;;;;5073469;28;20040;-58
2023/02/12 10:38:31;;;;;;;169.25;15.93;;;;;;;;;;5087313;28;20092;-59
2023/02/12 10:41:00;;;;;;;132.32;11.80;;;;;;;;;;5079182;28;20577;-60
2023/02/12 10:43:26;;;;;;;190.68;20.45;;;;;;;;;;5068256;28;20017;-59
2023/02/12 10:45:51;;;;;;;138.25;15.77;;;;;;;;;;5073198;28;20058;-59
2023/02/12 10:48:20;;;;;;;145.75;16.23;;;;;;;;;;5089118;28;20328;-60
2023/02/12 10:51:08;;;;;;;172.43;17.02;;;;;;;;;;5081562;28;20043;-59
2023/02/12 10:53:38;;;;;;;146.77;17.58;;;;;;;;;;5060521;28;20060;-59
2023/02/12 10:56:16;;;;;;;132.38;17.85;;;;;;;;;;5073648;28;20326;-59
2023/02/12 10:58:52;;;;;;;135.85;10.93;;;;;;;;;;5089070;28;20554;-58
2023/02/12 11:01:25;;;;;;;126.97;12.80;;;;;;;;;;5077997;28;20624;-58
2023/02/12 11:03:51;;;;;;;192.02;19.50;;;;;;;;;;5066158;28;20115;-59
2023/02/12 11:06:17;;;;;;;163.93;18.88;;;;;;;;;;5075147;28;20192;-57
2023/02/12 11:08:43;;;;;;;143.57;17.92;;;;;;;;;;5085891;28;20019;-59
2023/02/12 11:11:25;;;;;;;145.68;16.23;;;;;;;;;;5077861;28;20072;-59
2023/02/12 11:14:03;;;;;;;151.43;12.05;;;;;;;;;;5068012;28;20028;-58
2023/02/12 11:16:30;;;;;;;129.02;16.98;;;;;;;;;;5078247;28;20036;-60
2023/02/12 11:18:59;;;;;;;169.52;19.20;;;;;;;;;;5088499;28;20398;-59
2023/02/12 11:21:25;;;;;;;119.03;15.68;;;;;;;;;;5073005;28;20040;-59
2023/02/12 11:23:50;;;;;;;173.65;18.17;;;;;;;;;;5067497;28;20493;-59
2023/02/12 11:26:18;;;;;;;138.63;14.63;;;;;;;;;;5077543;28;20046;-59
2023/02/12 11:28:57;;;;;;;142.07;17.20;;;;;;;;;;5088508;28;20199;-59
2023/02/12 11:31:24;;;;;;;161.65;17.23;;;;;;;;;;5076161;28;20032;-59
2023/02/12 11:34:12;;;;;;;166.00;17.85;;;;;;;;;;5067288;28;20037;-59
2023/02/12 11:36:42;;;;;;;157.90;17.15;;;;;;;;;;5071277;28;20035;-61
2023/02/12 11:39:15;;;;;;;130.68;15.70;;;;;;;;;;5087140;28;20047;-59
2023/02/12 11:41:40;;;;;;;204.45;19.92;;;;;;;;;;5072815;28;20028;-58
2023/02/12 11:44:16;;;;;;;134.90;17.75;;;;;;;;;;5066075;28;20069;-59
2023/02/12 11:46:47;;;;;;;139.00;13.13;;;;;;;;;;5079868;28;20047;-59
2023/02/12 11:49:18;;;;;;;127.85;16.08;;;;;;;;;;5088358;28;20022;-60
2023/02/12 11:51:46;;;;;;;229.15;18.75;;;;;;;;;;5071788;28;20033;-60
2023/02/12 11:54:17;;;;;;;181.82;18.80;;;;;;;;;;5063557;28;20032;-59
2023/02/12 11:56:43;;;;;;;158.48;17.33;;;;;;;;;;5076911;28;20510;-60
2023/02/12 11:59:15;;;;;;;272.65;22.15;;;;;;;;;;5082936;28;20036;-60
2023/02/12 12:01:41;;;;;;;257.42;23.15;;;;;;;;;;5081536;28;20040;-61
2023/02/12 12:04:11;;;;;;;170.48;18.65;;;;;;;;;;5082626;28;20081;-61
2023/02/12 12:06:39;;;;;;;199.85;19.20;;;;;;;;;;5072136;28;20044;-60
2023/02/12 12:09:08;;;;;;;197.95;20.25;;;;;;;;;;5065594;28;20051;-58
2023/02/12 12:11:43;;;;;;;192.98;18.00;;;;;;;;;;5077114;28;20055;-60
2023/02/12 12:14:15;;;;;;;150.82;17.27;;;;;;;;;;5083751;28;20055;-59
2023/02/12 12:19:52;;;;;;;142.88;17.33;;;;;;;;;;5061910;28;20090;-58
2023/02/12 12:22:36;;;;;;;226.68;19.95;;;;;;;;;;5061405;28;20044;-59
2023/02/12 12:25:10;;;;;;;162.18;16.02;;;;;;;;;;5063376;28;20017;-59
2023/02/12 12:28:02;;;;;;;179.18;17.60;;;;;;;;;;5084529;28;20117;-61
2023/02/12 12:30:40;;;;;;;199.30;16.63;;;;;;;;;;5079251;28;20074;-59
2023/02/12 12:33:11;;;;;;;124.80;13.13;;;;;;;;;;5062210;28;20443;-59
2023/02/12 12:36:03;;;;;;;141.80;16.48;;;;;;;;;;5064359;28;20101;-57
2023/02/12 12:38:35;;;;;;;166.15;16.70;;;;;;;;;;5044270;28;20035;-59
2023/02/12 12:41:21;;;;;;;130.65;13.85;;;;;;;;;;5064343;28;20105;-60
2023/02/12 12:44:05;;;;;;;155.07;15.35;;;;;;;;;;5059021;28;20647;-61
2023/02/12 12:46:30;;;;;;;180.32;17.98;;;;;;;;;;5062147;28;20052;-61
2023/02/12 12:49:12;;;;;;;190.27;17.63;;;;;;;;;;5065434;28;20052;-60
2023/02/12 12:51:38;;;;;;;176.52;15.75;;;;;;;;;;5063158;28;20496;-59
2023/02/12 12:54:09;;;;;;;120.97;14.70;;;;;;;;;;5064048;28;20028;-58
2023/02/12 12:56:34;;;;;;;176.35;16.80;;;;;;;;;;5062586;28;20291;-61
2023/02/12 12:59:18;;;;;;;192.47;16.00;;;;;;;;;;5071617;28;20124;-57
2023/02/12 13:01:49;;;;;;;182.35;17.90;;;;;;;;;;5060279;28;20336;-56
2023/02/12 13:04:23;;;;;;;162.07;17.00;;;;;;;;;;5065843;28;20518;-58
2023/02/12 13:07:02;;;;;;;185.23;16.17;;;;;;;;;;5066717;28;20050;-57
2023/02/12 13:09:27;;;;;;;152.45;16.33;;;;;;;;;;5065708;28;20012;-58
2023/02/12 13:12:04;;;;;;;237.63;17.43;;;;;;;;;;5064357;28;20781;-58
2023/02/12 13:14:32;;;;;;;127.13;13.57;;;;;;;;;;5065233;28;20262;-55
2023/02/12 13:17:13;;;;;;;156.15;15.40;;;;;;;;;;5064235;28;20437;-57
2023/02/12 13:19:44;;;;;;;167.00;17.33;;;;;;;;;;5066897;28;20542;-59
2023/02/12 13:22:19;;;;;;;168.68;15.80;;;;;;;;;;5065537;28;20038;-58
2023/02/12 13:24:58;;;;;;;197.82;16.92;;;;;;;;;;5068409;28;20033;-58
2023/02/12 13:27:26;;;;;;;205.48;17.70;;;;;;;;;;5065864;28;20025;-59
2023/02/12 13:29:54;;;;;;;134.35;15.85;;;;;;;;;;5067315;28;20021;-60
2023/02/12 13:32:42;;;;;;;131.52;12.93;;;;;;;;;;5064126;28;20032;-60
2023/02/12 13:35:12;;;;;;;181.48;16.35;;;;;;;;;;5066436;28;20069;-57
2023/02/12 13:37:40;;;;;;;159.02;15.35;;;;;;;;;;5066026;28;20045;-57
2023/02/12 13:40:06;;;;;;;121.15;13.80;;;;;;;;;;5066679;28;20020;-57
2023/02/12 13:42:50;;;;;;;155.57;14.77;;;;;;;;;;5065707;28;20028;-56
2023/02/12 13:45:20;;;;;;;228.30;18.38;;;;;;;;;;5067382;28;20032;-57
2023/02/12 13:47:58;;;;;;;217.27;16.65;;;;;;;;;;5086515;28;20492;-57
2023/02/12 13:50:35;;;;;;;131.07;15.00;;;;;;;;;;5085307;28;20039;-61
2023/02/12 13:53:05;;;;;;;207.90;17.27;;;;;;;;;;5066650;28;20020;-58
2023/02/12 13:55:30;;;;;;;185.38;16.27;;;;;;;;;;5065582;28;20116;-58
2023/02/12 13:58:15;;;;;;;209.50;13.43;;;;;;;;;;5063282;28;20020;-57
2023/02/12 14:00:46;;;;;;;224.93;17.20;;;;;;;;;;5062915;28;20269;-57
2023/02/12 14:03:12;;;;;;;195.88;17.17;;;;;;;;;;5066675;28;20016;-59
2023/02/12 14:05:37;;;;;;;170.48;15.18;;;;;;;;;;5066773;28;20094;-59
2023/02/12 14:08:04;;;;;;;225.07;17.73;;;;;;;;;;5066835;28;20045;-58
2023/02/12 14:10:32;;;;;;;167.55;14.57;;;;;;;;;;5065715;28;20406;-59
2023/02/12 14:13:16;;;;;;;151.75;12.88;;;;;;;;;;5066400;28;20048;-60
2023/02/12 14:15:43;;;;;;;152.98;14.60;;;;;;;;;;5069024;28;20038;-59
2023/02/12 14:18:38;;;;;;;193.00;16.95;;;;;;;;;;5086403;28;20619;-60